createdAt,value
2024-05-09T00:02:12.668Z,3.75
2024-05-09T00:05:34.961Z,3.85
2024-05-09T00:08:57.259Z,2.65
2024-05-09T00:12:19.614Z,2.30
2024-05-09T00:15:41.933Z,2.85
2024-05-09T00:19:04.405Z,4.32
2024-05-09T00:22:26.606Z,2.10
2024-05-09T00:25:48.813Z,1.42
2024-05-09T00:29:11.061Z,1.95
2024-05-09T00:32:33.423Z,4.95
2024-05-09T00:35:55.681Z,2.75
2024-05-09T00:39:17.816Z,3.92
2024-05-09T00:42:40.539Z,3.55
2024-05-09T00:46:03.245Z,1.70
2024-05-09T00:49:26.998Z,1.90
2024-05-09T00:52:49.918Z,1.15
2024-05-09T00:56:13.085Z,1.65
2024-05-09T00:59:35.921Z,1.10
2024-05-09T01:02:58.975Z,2.38
2024-05-09T01:06:21.649Z,1.38
2024-05-09T01:09:43.809Z,1.30
2024-05-09T01:13:07.149Z,1.27
2024-05-09T01:16:29.773Z,2.05
2024-05-09T01:19:52.528Z,1.20
2024-05-09T01:23:16.210Z,0.80
2024-05-09T01:26:38.998Z,1.98
2024-05-09T01:30:01.190Z,1.77
2024-05-09T01:33:23.594Z,4.90
2024-05-09T01:36:45.891Z,2.40
2024-05-09T01:40:14.802Z,1.65
2024-05-09T01:43:40.328Z,1.52
2024-05-09T01:47:02.599Z,2.55
2024-05-09T01:50:35.935Z,1.98
2024-05-09T01:54:02.704Z,1.73
2024-05-09T01:57:24.844Z,3.92
2024-05-09T02:00:47.993Z,1.23
2024-05-09T02:04:10.438Z,3.97
2024-05-09T02:07:32.711Z,1.58
2024-05-09T02:10:55.126Z,3.65
2024-05-09T02:14:23.275Z,2.17
2024-05-09T02:17:45.892Z,2.47
2024-05-09T02:21:09.273Z,3.20
2024-05-09T02:24:31.471Z,2.33
2024-05-09T02:27:53.791Z,2.72
2024-05-09T02:31:16.167Z,4.63
2024-05-09T02:34:38.547Z,3.15
2024-05-09T02:38:00.950Z,2.72
2024-05-09T02:41:23.255Z,2.75
2024-05-09T02:44:45.465Z,4.00
2024-05-09T02:48:10.543Z,4.68
2024-05-09T02:51:33.001Z,4.05
2024-05-09T02:54:55.179Z,3.70
2024-05-09T02:58:17.314Z,4.38
2024-05-09T03:01:39.557Z,4.85
2024-05-09T03:05:01.940Z,4.28
2024-05-09T03:08:25.620Z,4.88
2024-05-09T03:11:47.991Z,3.92
2024-05-09T03:15:10.346Z,4.38
2024-05-09T03:18:32.618Z,8.30
2024-05-09T03:21:54.865Z,3.65
2024-05-09T03:25:17.041Z,4.78
2024-05-09T03:28:39.272Z,3.58
2024-05-09T03:32:01.580Z,4.70
2024-05-09T03:35:23.930Z,4.97
2024-05-09T03:38:46.575Z,3.83
2024-05-09T03:42:08.847Z,3.58
2024-05-09T03:45:31.040Z,4.68
2024-05-09T03:48:54.034Z,5.30
2024-05-09T03:52:16.434Z,3.70
2024-05-09T03:55:39.170Z,6.85
2024-05-09T03:59:01.717Z,6.82
2024-05-09T04:02:24.038Z,6.18
2024-05-09T04:05:46.676Z,4.95
2024-05-09T04:09:09.088Z,9.88
2024-05-09T04:12:31.394Z,4.28
2024-05-09T04:15:53.652Z,3.75
2024-05-09T04:19:16.144Z,7.05
2024-05-09T04:22:38.748Z,4.55
2024-05-09T04:26:04.443Z,4.50
2024-05-09T04:29:26.842Z,4.82
2024-05-09T04:32:50.662Z,3.05
2024-05-09T04:36:12.879Z,2.58
2024-05-09T04:39:35.049Z,4.68
2024-05-09T04:42:57.526Z,3.30
2024-05-09T04:46:19.657Z,3.40
2024-05-09T04:49:42.644Z,5.05
2024-05-09T04:53:05.966Z,7.32
2024-05-09T04:56:30.876Z,5.35
2024-05-09T04:59:53.199Z,3.58
2024-05-09T05:03:16.495Z,2.00
2024-05-09T05:06:39.140Z,1.95
2024-05-09T05:10:01.293Z,5.07
2024-05-09T05:13:24.361Z,2.90
2024-05-09T05:16:47.098Z,2.67
2024-05-09T05:20:15.042Z,4.07
2024-05-09T05:23:38.268Z,4.40
2024-05-09T05:27:00.521Z,3.72
2024-05-09T05:30:28.761Z,3.95
2024-05-09T05:33:55.183Z,4.07
2024-05-09T05:37:17.401Z,5.13
2024-05-09T05:40:40.759Z,1.00
2024-05-09T05:44:03.526Z,1.65
2024-05-09T05:47:25.811Z,1.88
2024-05-09T05:50:48.117Z,1.50
2024-05-09T05:54:11.202Z,4.38
2024-05-09T05:57:34.145Z,3.20
2024-05-09T06:00:56.761Z,11.55
2024-05-09T06:04:19.079Z,3.22
2024-05-09T06:07:41.278Z,4.50
2024-05-09T06:11:03.665Z,5.00
2024-05-09T06:14:26.123Z,2.65
2024-05-09T06:17:48.457Z,3.25
2024-05-09T06:21:11.273Z,2.70
2024-05-09T06:24:33.441Z,3.33
2024-05-09T06:27:55.684Z,2.03
2024-05-09T06:31:17.958Z,5.28
2024-05-09T06:34:40.277Z,8.32
2024-05-09T06:38:02.729Z,1.35
2024-05-09T06:41:25.020Z,4.38
2024-05-09T06:44:47.217Z,6.63
2024-05-09T06:48:10.490Z,1.80
2024-05-09T06:51:36.914Z,2.35
2024-05-09T06:54:59.068Z,3.90
2024-05-09T06:58:21.371Z,1.55
2024-05-09T07:01:43.620Z,4.30
2024-05-09T07:05:06.275Z,2.60
2024-05-09T07:08:28.524Z,3.10
2024-05-09T07:11:50.794Z,3.17
2024-05-09T07:15:13.112Z,3.50
2024-05-09T07:18:35.503Z,4.90
2024-05-09T07:21:59.889Z,3.80
2024-05-09T07:25:22.054Z,1.70
2024-05-09T07:28:44.190Z,1.77
2024-05-09T07:32:07.380Z,2.40
2024-05-09T07:35:29.782Z,2.53
2024-05-09T07:38:52.480Z,1.77
2024-05-09T07:42:15.444Z,4.00
2024-05-09T07:45:48.356Z,1.42
2024-05-09T07:50:55.884Z,0.90
2024-05-09T07:56:24.314Z,3.33
2024-05-09T07:59:48.173Z,2.00
2024-05-09T08:03:10.881Z,2.58
2024-05-09T08:06:33.718Z,2.13
2024-05-09T08:09:56.008Z,25.65
2024-05-09T08:13:18.393Z,2.63
2024-05-09T08:16:40.622Z,2.33
2024-05-09T08:20:05.510Z,1.83
2024-05-09T08:23:28.959Z,1.63
2024-05-09T08:26:51.387Z,7.22
2024-05-09T08:30:21.779Z,4.20
2024-05-09T08:33:52.446Z,1.15
2024-05-09T08:37:21.489Z,0.35
2024-05-09T08:40:45.942Z,0.60
2024-05-09T08:44:08.584Z,0.40
2024-05-09T08:47:34.531Z,0.98
2024-05-09T08:50:59.530Z,2.40
2024-05-09T08:54:22.818Z,1.35
2024-05-09T08:57:45.875Z,1.05
2024-05-09T09:01:08.974Z,2.05
2024-05-09T09:04:33.194Z,0.77
2024-05-09T09:07:55.458Z,1.63
2024-05-09T09:11:17.711Z,0.70
2024-05-09T09:14:39.972Z,2.05
2024-05-09T09:18:02.315Z,0.60
2024-05-09T09:21:24.535Z,1.98
2024-05-09T09:24:46.761Z,1.10
2024-05-09T09:28:09.852Z,1.75
2024-05-09T09:31:32.530Z,2.15
2024-05-09T09:34:54.897Z,2.50
2024-05-09T09:38:22.079Z,1.63
2024-05-09T09:41:47.439Z,0.82
2024-05-09T09:45:10.459Z,1.20
2024-05-09T09:48:34.311Z,0.68
2024-05-09T09:51:57.287Z,0.85
2024-05-09T09:55:20.503Z,2.05
2024-05-09T09:58:43.881Z,1.98
2024-05-09T10:02:06.425Z,2.35
2024-05-09T10:05:29.900Z,1.95
2024-05-09T10:08:52.817Z,1.10
2024-05-09T10:12:15.546Z,1.42
2024-05-09T10:15:54.129Z,4.32
2024-05-09T10:19:26.954Z,1.40
2024-05-09T10:22:50.562Z,6.60
2024-05-09T10:26:12.911Z,1.73
2024-05-09T10:29:35.178Z,1.90
2024-05-09T10:32:57.460Z,1.40
2024-05-09T10:36:20.531Z,3.33
2024-05-09T10:39:43.190Z,1.73
2024-05-09T10:43:06.583Z,2.83
2024-05-09T10:46:28.930Z,1.63
2024-05-09T10:49:51.381Z,1.30
2024-05-09T10:53:13.555Z,1.10
2024-05-09T10:56:35.802Z,1.63
2024-05-09T11:00:00.231Z,3.20
2024-05-09T11:03:25.857Z,1.35
2024-05-09T11:06:48.392Z,2.13
2024-05-09T11:10:14.519Z,2.30
2024-05-09T11:13:41.312Z,1.42
2024-05-09T11:17:06.431Z,2.05
2024-05-09T11:20:38.577Z,2.55
2024-05-09T11:24:00.989Z,1.45
2024-05-09T11:27:24.040Z,1.38
2024-05-09T11:30:47.044Z,0.90
2024-05-09T11:34:10.272Z,1.42
2024-05-09T11:37:36.055Z,3.83
2024-05-09T11:40:59.737Z,2.40
2024-05-09T11:44:22.002Z,1.60
2024-05-09T11:47:44.335Z,1.58
2024-05-09T11:51:06.567Z,3.88
2024-05-09T11:54:28.946Z,2.60
2024-05-09T11:57:51.180Z,1.58
2024-05-09T12:01:13.463Z,2.08
2024-05-09T12:04:35.962Z,1.42
2024-05-09T12:07:58.324Z,1.90
2024-05-09T12:11:20.667Z,1.67
2024-05-09T12:14:43.132Z,1.33
2024-05-09T12:18:06.056Z,4.03
2024-05-09T12:21:28.489Z,2.20
2024-05-09T12:24:50.775Z,2.17
2024-05-09T12:28:13.171Z,2.83
2024-05-09T12:31:35.466Z,1.80
2024-05-09T12:34:57.704Z,3.60
2024-05-09T12:38:20.158Z,2.47
2024-05-09T12:41:42.367Z,2.60
2024-05-09T12:45:05.455Z,4.07
2024-05-09T12:48:28.093Z,3.15
2024-05-09T12:51:50.562Z,3.08
2024-05-09T12:55:12.993Z,2.72
2024-05-09T12:58:35.377Z,2.83
2024-05-09T13:02:00.426Z,3.15
2024-05-09T13:05:23.436Z,2.63
2024-05-09T13:08:45.822Z,2.35
2024-05-09T13:12:08.131Z,4.15
2024-05-09T13:15:31.412Z,3.58
2024-05-09T13:18:53.868Z,4.93
2024-05-09T13:22:16.081Z,2.35
2024-05-09T13:25:38.483Z,4.63
2024-05-09T13:29:00.784Z,4.78
2024-05-09T13:32:23.563Z,2.97
2024-05-09T13:35:49.739Z,3.40
2024-05-09T13:39:13.547Z,3.22
2024-05-09T13:42:36.186Z,3.67
2024-05-09T13:45:58.702Z,4.88
2024-05-09T13:49:21.050Z,2.42
2024-05-09T13:52:43.555Z,2.55
2024-05-09T13:56:06.031Z,2.78
2024-05-09T13:59:28.185Z,3.28
2024-05-09T14:02:50.508Z,3.13
2024-05-09T14:06:13.332Z,3.25
2024-05-09T14:09:35.752Z,2.58
2024-05-09T14:12:58.057Z,2.50
2024-05-09T14:16:21.411Z,3.85
2024-05-09T14:19:43.685Z,3.97
2024-05-09T14:23:05.971Z,3.25
2024-05-09T14:26:28.860Z,2.13
2024-05-09T14:29:51.085Z,2.65
2024-05-09T14:33:16.396Z,5.80
2024-05-09T14:36:38.690Z,2.63
2024-05-09T14:40:01.122Z,3.90
2024-05-09T14:43:23.365Z,3.53
2024-05-09T14:46:45.707Z,2.17
2024-05-09T14:50:11.144Z,1.70
2024-05-09T14:53:35.972Z,2.53
2024-05-09T14:56:58.363Z,2.20
2024-05-09T15:00:26.406Z,2.72
2024-05-09T15:03:56.921Z,1.92
2024-05-09T15:07:19.331Z,2.10
2024-05-09T15:10:41.593Z,3.95
2024-05-09T15:14:03.872Z,3.53
2024-05-09T15:17:26.211Z,2.40
2024-05-09T15:20:48.821Z,1.80
2024-05-09T15:24:11.309Z,1.95
2024-05-09T15:27:33.575Z,2.45
2024-05-09T15:30:55.849Z,2.90
2024-05-09T15:34:18.061Z,3.42
2024-05-09T15:37:40.777Z,3.80
2024-05-09T15:41:03.009Z,5.10
2024-05-09T15:44:28.183Z,3.83
2024-05-09T15:47:50.591Z,5.38
2024-05-09T15:51:12.950Z,1.95
2024-05-09T15:54:35.392Z,2.65
2024-05-09T15:57:57.667Z,2.33
2024-05-09T16:01:20.055Z,2.45
2024-05-09T16:04:42.444Z,4.03
2024-05-09T16:08:05.573Z,3.83
2024-05-09T16:11:27.771Z,9.60
2024-05-09T16:14:50.885Z,1.52
2024-05-09T16:18:13.377Z,2.60
2024-05-09T16:21:35.811Z,4.00
2024-05-09T16:24:58.166Z,2.95
2024-05-09T16:28:23.842Z,3.08
2024-05-09T16:31:46.759Z,3.55
2024-05-09T16:35:08.943Z,2.92
2024-05-09T16:38:31.384Z,3.92
2024-05-09T16:41:53.573Z,4.18
2024-05-09T16:45:15.887Z,3.35
2024-05-09T16:48:40.812Z,2.95
2024-05-09T16:52:03.231Z,4.57
2024-05-09T16:55:25.523Z,4.22
2024-05-09T16:58:47.885Z,5.47
2024-05-09T17:02:10.320Z,5.05
2024-05-09T17:05:32.843Z,5.15
2024-05-09T17:08:55.605Z,3.85
2024-05-09T17:12:21.222Z,3.63
2024-05-09T17:15:43.455Z,4.43
2024-05-09T17:19:06.668Z,4.32
2024-05-09T17:22:28.846Z,4.97
2024-05-09T17:25:51.055Z,3.20
2024-05-09T17:29:13.280Z,3.30
2024-05-09T17:32:35.569Z,3.05
2024-05-09T17:35:57.949Z,4.25
2024-05-09T17:39:20.121Z,3.60
2024-05-09T17:42:42.429Z,4.57
2024-05-09T17:46:07.243Z,4.82
2024-05-09T17:49:29.596Z,5.07
2024-05-09T17:52:53.733Z,4.90
2024-05-09T17:56:15.987Z,8.35
2024-05-09T17:59:38.225Z,5.65
2024-05-09T18:03:00.540Z,4.85
2024-05-09T18:06:22.799Z,5.13
2024-05-09T18:09:45.452Z,6.20
2024-05-09T18:13:08.807Z,5.68
2024-05-09T18:16:31.448Z,8.40
2024-05-09T18:19:53.696Z,34.08
2024-05-09T18:23:18.663Z,29.17
2024-05-09T18:26:41.756Z,19.00
2024-05-09T18:30:07.195Z,42.15
2024-05-09T18:33:29.762Z,40.20
2024-05-09T18:36:53.197Z,37.63
2024-05-09T18:40:21.179Z,20.75
2024-05-09T18:43:51.047Z,8.73
2024-05-09T18:47:15.990Z,4.07
2024-05-09T18:50:40.958Z,10.55
2024-05-09T18:54:04.017Z,4.18
2024-05-09T18:57:26.280Z,3.63
2024-05-09T19:00:50.508Z,3.70
2024-05-09T19:04:18.459Z,4.97
2024-05-09T19:07:41.075Z,4.72
2024-05-09T19:11:03.346Z,4.82
2024-05-09T19:14:25.515Z,3.65
2024-05-09T19:17:48.337Z,4.05
2024-05-09T19:21:10.644Z,4.88
2024-05-09T19:24:32.798Z,4.53
2024-05-09T19:27:55.085Z,3.72
2024-05-09T19:31:17.387Z,5.60
2024-05-09T19:34:39.585Z,7.38
2024-05-09T19:38:02.355Z,5.40
2024-05-09T19:41:24.519Z,5.47
2024-05-09T19:44:46.762Z,6.55
2024-05-09T19:48:09.225Z,4.47
2024-05-09T19:51:32.196Z,5.45
2024-05-09T19:54:54.692Z,4.63
2024-05-09T19:58:17.163Z,5.50
2024-05-09T20:01:39.859Z,8.10
2024-05-09T20:05:03.747Z,7.38
2024-05-09T20:08:26.625Z,9.70
2024-05-09T20:11:48.783Z,6.15
2024-05-09T20:15:11.015Z,7.20
2024-05-09T20:18:33.342Z,8.35
2024-05-09T20:21:56.229Z,7.72
2024-05-09T20:25:18.588Z,9.05
2024-05-09T20:28:42.102Z,9.20
2024-05-09T20:32:04.765Z,8.68
2024-05-09T20:35:27.022Z,11.43
2024-05-09T20:38:49.414Z,8.75
2024-05-09T20:42:11.865Z,12.98
2024-05-09T20:45:34.406Z,10.77
2024-05-09T20:48:57.140Z,9.43
2024-05-09T20:52:19.422Z,8.40
2024-05-09T20:55:42.253Z,11.98
2024-05-09T20:59:04.390Z,12.30
2024-05-09T21:02:26.732Z,13.80
2024-05-09T21:05:49.171Z,9.75
2024-05-09T21:09:11.503Z,9.70
2024-05-09T21:12:33.716Z,7.68
2024-05-09T21:15:56.300Z,9.68
2024-05-09T21:19:18.799Z,9.38
2024-05-09T21:22:41.090Z,9.48
2024-05-09T21:26:03.623Z,9.38
2024-05-09T21:29:25.956Z,9.15
2024-05-09T21:32:48.301Z,8.35
2024-05-09T21:36:10.539Z,9.63
2024-05-09T21:39:32.877Z,6.40
2024-05-09T21:42:55.235Z,5.85
2024-05-09T21:46:17.462Z,8.00
2024-05-09T21:49:39.835Z,5.10
2024-05-09T21:53:02.084Z,6.50
2024-05-09T21:56:24.690Z,5.03
2024-05-09T21:59:47.606Z,5.90
2024-05-09T22:03:11.202Z,6.78
2024-05-09T22:06:35.124Z,5.13
2024-05-09T22:09:57.407Z,6.72
2024-05-09T22:13:20.551Z,6.65
2024-05-09T22:16:42.872Z,5.78
2024-05-09T22:20:11.732Z,7.30
2024-05-09T22:23:37.155Z,6.28
2024-05-09T22:26:59.347Z,6.78
2024-05-09T22:30:27.916Z,5.95
2024-05-09T22:33:57.267Z,6.70
2024-05-09T22:37:19.654Z,4.82
2024-05-09T22:40:47.529Z,9.93
2024-05-09T22:44:11.803Z,7.00
2024-05-09T22:47:34.012Z,5.05
2024-05-09T22:50:56.548Z,11.90
2024-05-09T22:54:18.732Z,5.93
2024-05-09T22:57:40.928Z,7.85
2024-05-09T23:01:03.372Z,8.40
2024-05-09T23:04:25.718Z,6.85
2024-05-09T23:07:47.956Z,8.23
2024-05-09T23:11:10.304Z,10.23
2024-05-09T23:14:32.747Z,6.97
2024-05-09T23:17:55.553Z,9.45
2024-05-09T23:21:17.856Z,7.32
2024-05-09T23:24:40.164Z,5.20
2024-05-09T23:28:02.760Z,5.90
2024-05-09T23:31:25.203Z,7.35
2024-05-09T23:34:47.431Z,7.65
2024-05-09T23:38:09.870Z,6.47
2024-05-09T23:41:32.451Z,6.25
2024-05-09T23:44:54.624Z,5.43
2024-05-09T23:48:17.008Z,5.88
2024-05-09T23:51:39.325Z,4.72
2024-05-09T23:55:01.512Z,5.38
2024-05-09T23:58:23.946Z,5.95
